Latest Weather Observations for Ayr

IDQ60801

Issued at 8:02 pm EST Friday 19 December 2014 (issued every 30 minutes, with the page automatically refreshed every 10 minutes)

About weather observations | Map of weather stations | Latest weather observations for QLD | Other Formats
Station Details ID: 033002 Name: AYR DPI RESEARCH STN Lat: -19.62 Lon: 147.38 Height: 17.0 m
Data from the previous 72 hours. | See also: Recent months at Ayr
Date/Time
EST
Temp
°C
App
Temp
°C
Dew
Point
Rel
Hum
%
Delta-T
°C
Wind Press
QNH
hPa
Press
MSL
hPa
Rain
since 9 am
mm
Dir
 
Spd
km/h
Gust
km/h
Spd
kts
Gust
kts
19/08:00pm 26.3 28.8 19.9 68 4.2 NNE 6 9 3 5 - - 0.0
19/07:30pm 26.9 29.8 19.8 65 4.6 NNE 4 7 2 4 - - 0.0
19/07:00pm 27.3 29.6 19.4 62 5.1 N 6 9 3 5 - - 0.0
19/06:30pm 27.8 29.5 19.3 60 5.5 NNE 9 13 5 7 - - 0.0
19/06:00pm 28.5 29.6 18.9 56 6.2 NE 11 15 6 8 - - 0.0
19/05:30pm 28.7 29.6 19.3 56 6.1 NE 13 17 7 9 - - 0.0
19/05:00pm 29.2 30.2 19.5 56 6.3 NE 13 19 7 10 - - 0.0
19/04:30pm 29.8 31.2 20.4 57 6.2 NE 13 22 7 12 - - 0.0
19/04:00pm 30.3 31.4 20.5 55 6.5 NE 15 24 8 13 - - 0.0
19/03:30pm 31.0 32.4 20.3 53 7.1 NE 13 19 7 10 - - 0.0
19/03:00pm 31.5 32.9 19.5 49 7.9 N 11 17 6 9 - - 0.0
19/02:30pm 31.7 33.0 19.3 47 8.1 N 11 19 6 10 - - 0.0
19/02:00pm 31.1 32.3 19.1 48 7.8 N 11 19 6 10 - - 0.0
19/01:30pm 31.4 32.7 19.4 49 7.9 N 11 19 6 10 - - 0.0
19/01:00pm 31.7 32.5 19.0 47 8.3 N 13 24 7 13 - - 0.0
19/12:30pm 31.6 33.0 18.6 46 8.4 N 9 19 5 10 - - 0.0
19/12:00pm 30.5 31.5 18.6 49 7.7 NNE 11 19 6 10 - - 0.0
19/11:30am 30.9 32.0 18.9 48 7.8 NNW 11 19 6 10 - - 0.0
19/11:00am 30.2 31.4 19.9 54 6.8 NNW 13 19 7 10 - - 0.0
19/10:30am 29.6 30.1 19.3 54 6.7 NNW 15 22 8 12 - - 0.0
19/10:00am 29.5 31.2 20.1 57 6.2 N 11 19 6 10 - - 0.0
19/09:30am 29.2 30.4 19.8 57 6.2 N 13 19 7 10 - - 0.0
19/09:00am 29.2 30.2 19.5 56 6.3 N 13 22 7 12 - - 0.0
19/08:30am 28.6 29.8 19.8 59 5.8 N 13 19 7 10 - - 0.0
19/08:00am 27.9 29.8 20.5 64 4.9 NNE 11 15 6 8 - - 0.0
19/07:30am 27.5 30.3 20.8 67 4.4 N 7 13 4 7 - - 0.0
19/07:00am 26.4 29.7 21.4 74 3.3 NNE 6 9 3 5 - - 0.0
19/06:30am 24.6 28.2 21.3 82 2.2 SSW 4 7 2 4 - - 0.0
19/06:00am 23.6 27.7 20.7 84 1.9 CALM 0 6 0 3 - - 0.0
19/05:30am 23.2 27.1 20.3 84 1.9 CALM 0 0 0 0 - - 0.0
19/05:00am 23.1 26.9 20.1 83 1.9 CALM 0 6 0 3 - - 0.0
19/04:30am 23.6 26.8 20.5 83 2.0 E 4 6 2 3 - - 0.0
19/04:00am 23.9 26.8 21.0 84 1.9 ESE 7 9 4 5 - - 0.0
19/03:30am 23.8 27.8 20.5 82 2.1 CALM 0 0 0 0 - - 0.0
19/03:00am 23.7 27.5 20.2 81 2.3 CALM 0 0 0 0 - - 0.0
19/02:30am 23.6 26.4 20.5 83 2.0 ENE 6 7 3 4 - - 0.0
19/02:00am 23.8 27.8 20.5 82 2.1 CALM 0 0 0 0 - - 0.0
19/01:30am 23.9 27.7 20.2 80 2.4 CALM 0 0 0 0 - - 0.0
19/01:00am 24.0 27.8 20.1 79 2.5 CALM 0 0 0 0 - - 0.0
19/12:30am 24.4 28.2 20.1 77 2.8 CALM 0 0 0 0 - - 0.0
19/12:00am 25.0 27.5 20.3 75 3.1 NE 7 15 4 8 - - 0.0
 
Date/Time
EST
Temp
°C
App
Temp
°C
Dew
Point
Rel
Hum
%
Delta-T
°C
Wind Press
QNH
hPa
Press
MSL
hPa
Rain
since 9 am
mm
Dir
 
Spd
km/h
Gust
km/h
Spd
kts
Gust
kts
18/11:30pm 25.2 27.4 20.5 75 3.1 S 9 11 5 6 - - 0.0
18/11:00pm 25.4 28.1 20.2 73 3.4 SSW 6 13 3 7 - - 0.0
18/10:30pm 25.6 27.3 20.2 72 3.5 SW 11 17 6 9 - - 0.0
18/10:00pm 24.7 27.7 20.0 75 3.0 N 4 9 2 5 - - 0.0
18/09:30pm 24.7 27.1 20.0 75 3.0 NNE 7 11 4 6 - - 0.0
18/09:00pm 24.7 27.3 20.0 75 3.0 NNE 6 9 3 5 - - 0.0
18/08:30pm 25.0 27.4 20.0 74 3.2 NNE 7 9 4 5 - - 0.0
18/08:00pm 25.3 27.8 19.9 72 3.5 NNE 6 9 3 5 - - 0.0
18/07:30pm 25.6 27.9 19.5 69 3.9 NNE 6 9 3 5 - - 0.0
18/07:00pm 26.5 28.6 19.4 65 4.6 NNE 7 11 4 6 - - 0.0
18/06:30pm 27.1 28.6 18.9 61 5.3 NNE 9 15 5 8 - - 0.0
18/06:00pm 27.9 28.8 18.3 56 6.1 N 11 19 6 10 - - 0.0
18/05:30pm 29.3 29.6 18.7 52 6.8 N 15 22 8 12 - - 0.0
18/05:00pm 29.7 29.7 18.2 50 7.4 N 15 24 8 13 - - 0.0
18/04:30pm 29.5 28.4 17.3 47 7.7 N 19 33 10 18 - - 0.0
18/04:00pm 30.7 29.8 17.7 45 8.3 N 19 32 10 17 - - 0.0
18/03:30pm 31.3 30.7 17.6 44 8.7 N 17 28 9 15 - - 0.0
18/03:00pm 32.1 31.3 17.9 42 9.1 N 19 32 10 17 - - 0.0
18/02:30pm 31.8 31.1 17.3 42 9.2 N 17 30 9 16 - - 0.0
18/02:00pm 32.1 30.5 15.1 35 10.5 N 17 26 9 14 - - 0.0
18/01:30pm 31.2 30.2 17.5 44 8.7 N 19 26 10 14 - - 0.0
18/01:00pm 31.5 30.4 17.4 43 9.0 N 19 30 10 16 - - 0.0
18/12:30pm 32.0 31.5 17.8 42 9.1 N 17 28 9 15 - - 0.0
18/12:00pm 31.6 30.8 17.1 41 9.2 N 17 28 9 15 - - 0.0
18/11:30am 31.5 31.1 18.1 44 8.6 NNE 17 26 9 14 - - 0.0
18/11:00am 31.2 30.6 17.5 44 8.7 N 17 26 9 14 - - 0.0
18/10:30am 31.4 31.2 18.4 46 8.4 N 17 30 9 16 - - 0.0
18/10:00am 31.0 30.8 18.4 47 8.1 N 17 26 9 14 - - 0.0
18/09:30am 30.4 30.6 18.5 49 7.7 N 15 20 8 11 - - 0.0
18/09:00am 29.9 30.2 18.7 51 7.2 N 15 24 8 13 - - 0.0
18/08:30am 29.6 29.7 18.4 51 7.2 N 15 24 8 13 - - 0.0
18/08:00am 29.4 30.0 20.3 58 6.0 NNW 17 26 9 14 - - 0.0
18/07:30am 28.3 30.3 20.8 63 5.0 N 11 19 6 10 - - 0.0
18/07:00am 26.8 29.7 21.1 71 3.8 NNE 7 13 4 7 - - 0.0
18/06:30am 24.8 27.5 20.7 78 2.7 NNE 7 9 4 5 - - 0.0
18/06:00am 23.0 26.2 19.8 82 2.1 NNE 2 7 1 4 - - 0.0
18/05:30am 22.3 24.6 19.5 84 1.8 NNE 6 9 3 5 - - 0.0
18/05:00am 22.3 24.6 19.5 84 1.8 NNE 6 7 3 4 - - 0.0
18/04:30am 22.1 24.1 19.1 83 1.9 NNE 7 9 4 5 - - 0.0
18/04:00am 22.4 25.9 19.6 84 1.8 CALM 0 7 0 4 - - 0.0
18/03:30am 22.4 24.6 19.2 82 2.0 N 6 7 3 4 - - 0.0
18/03:00am 22.7 25.0 19.5 82 2.0 NNE 6 7 3 4 - - 0.0
18/02:30am 22.6 25.5 19.0 80 2.3 NNE 2 7 1 4 - - 0.0
18/02:00am 23.2 26.3 19.6 80 2.3 NNW 2 6 1 3 - - 0.0
18/01:30am 22.9 25.1 19.1 79 2.4 NNE 6 7 3 4 - - 0.0
18/01:00am 23.0 25.2 19.2 79 2.4 N 6 9 3 5 - - 0.0
18/12:30am 23.3 25.6 19.5 79 2.4 NNE 6 11 3 6 - - 0.0
18/12:00am 23.4 25.7 19.5 79 2.5 N 6 7 3 4 - - 0.0
 
Date/Time
EST
Temp
°C
App
Temp
°C
Dew
Point
Rel
Hum
%
Delta-T
°C
Wind Press
QNH
hPa
Press
MSL
hPa
Rain
since 9 am
mm
Dir
 
Spd
km/h
Gust
km/h
Spd
kts
Gust
kts
17/11:30pm 23.9 27.1 19.8 78 2.6 N 2 7 1 4 - - 0.0
17/11:00pm 24.1 27.1 20.0 78 2.7 N 4 7 2 4 - - 0.0
17/10:30pm 24.1 27.0 19.8 77 2.8 N 4 7 2 4 - - 0.0
17/10:00pm 24.1 26.6 19.8 77 2.8 NNE 6 9 3 5 - - 0.0
17/09:30pm 24.3 26.7 19.6 75 3.0 NNE 6 9 3 5 - - 0.0
17/09:00pm 24.9 27.1 19.7 73 3.4 NNE 7 9 4 5 - - 0.0
17/08:30pm 25.3 27.0 19.4 70 3.8 NNE 9 15 5 8 - - 0.0
17/08:00pm 25.1 26.7 19.2 70 3.8 NNE 9 13 5 7 - - 0.0
17/07:30pm 25.7 27.2 18.9 66 4.3 NNE 9 13 5 7 - - 0.0
17/07:00pm 26.6 28.0 18.7 62 5.0 NNE 9 13 5 7 - - 0.0
17/06:30pm 28.1 29.4 18.5 56 6.1 N 9 17 5 9 - - 0.0
17/06:00pm 29.0 29.9 19.3 55 6.3 N 13 24 7 13 - - 0.0
17/05:30pm 29.6 29.6 19.0 53 6.9 N 17 24 9 13 - - 0.0
17/05:00pm 31.0 31.2 17.7 45 8.5 N 13 24 7 13 - - 0.0
17/04:30pm 31.2 30.4 17.1 42 8.9 N 17 32 9 17 - - 0.0
17/04:00pm 31.6 31.0 17.5 43 9.0 N 17 28 9 15 - - 0.0
17/03:30pm 31.9 31.5 18.1 43 8.9 N 17 28 9 15 - - 0.0
17/03:00pm 32.6 31.3 16.8 38 10.0 N 19 32 10 17 - - 0.0
17/02:30pm 32.1 31.6 17.9 42 9.1 N 17 28 9 15 - - 0.0
17/02:00pm 33.3 33.7 19.0 42 9.4 N 15 28 8 15 - - 0.0
17/01:30pm 32.5 32.2 18.3 43 9.2 N 17 28 9 15 - - 0.0
17/01:00pm 33.7 33.9 18.6 40 9.9 N 15 30 8 16 - - 0.0
17/12:30pm 32.0 31.7 18.2 43 8.9 N 17 28 9 15 - - 0.0
17/12:00pm 32.3 31.8 17.7 41 9.4 N 17 30 9 16 - - 0.0
17/11:30am 32.2 30.9 16.9 40 9.7 NNW 19 30 10 16 - - 0.0
17/11:00am 32.1 32.0 17.9 42 9.1 N 15 32 8 17 - - 0.0
17/10:30am 30.6 30.1 18.7 49 7.7 NNW 19 26 10 14 - - 0.0
17/10:00am 30.5 30.0 17.9 47 8.1 NNW 17 28 9 15 - - 0.0
17/09:30am 30.3 30.1 17.7 46 8.0 N 15 20 8 11 - - 0.0
17/09:00am 30.8 31.6 19.8 52 7.2 NNW 15 24 8 13 - - 0.0
17/08:30am 30.0 30.7 19.7 54 6.7 N 15 20 8 11 - - 0.0
17/08:00am 29.3 30.4 20.5 59 5.8 N 15 24 8 13 - - 0.0
17/07:30am 28.3 30.8 21.8 68 4.4 N 11 17 6 9 - - 0.0
17/07:00am 27.1 30.6 21.8 73 3.5 NNE 6 7 3 4 - - 0.0
17/06:30am 25.3 29.4 21.6 80 2.5 NE 2 7 1 4 - - 0.0
17/06:00am 22.9 26.1 20.4 86 1.6 NNE 4 6 2 3 - - 0.0
17/05:30am 22.1 24.9 19.6 86 1.6 NNE 4 7 2 4 - - 0.0
17/05:00am 22.4 24.7 19.9 86 1.6 NNE 7 9 4 5 - - 0.0
17/04:30am 22.3 24.7 20.0 87 1.5 NNE 7 11 4 6 - - 0.0
17/04:00am 21.7 24.0 19.4 87 1.5 NNE 6 9 3 5 - - 0.0
17/03:30am 21.7 24.8 19.4 87 1.5 NNE 2 6 1 3 - - 0.0
17/03:00am 21.7 25.1 19.4 87 1.5 CALM 0 0 0 0 - - 0.0
17/02:30am 21.8 25.3 19.5 87 1.5 CALM 0 0 0 0 - - 0.0
17/02:00am 22.0 25.6 19.7 87 1.5 CALM 0 0 0 0 - - 0.0
17/01:30am 22.0 25.5 19.5 86 1.6 CALM 0 0 0 0 - - 0.0
17/01:00am 22.3 25.9 19.7 85 1.7 CALM 0 0 0 0 - - 0.0
17/12:30am 22.4 26.0 19.8 85 1.7 CALM 0 0 0 0 - - 0.0
17/12:00am 22.7 26.4 20.0 85 1.7 CALM 0 0 0 0 - - 0.0
 
Date/Time
EST
Temp
°C
App
Temp
°C
Dew
Point
Rel
Hum
%
Delta-T
°C
Wind Press
QNH
hPa
Press
MSL
hPa
Rain
since 9 am
mm
Dir
 
Spd
km/h
Gust
km/h
Spd
kts
Gust
kts
16/11:30pm 22.6 26.2 19.8 84 1.8 CALM 0 6 0 3 - - 0.0
16/11:00pm 22.7 26.4 19.9 84 1.8 CALM 0 0 0 0 - - 0.0
16/10:30pm 23.0 26.4 19.4 80 2.3 CALM 0 0 0 0 - - 0.0
16/10:00pm 23.4 26.9 19.5 79 2.5 CALM 0 0 0 0 - - 0.0
16/09:30pm 24.0 27.7 19.9 78 2.6 CALM 0 6 0 3 - - 0.0
16/09:00pm 24.7 28.1 20.2 76 2.9 N 2 7 1 4 - - 0.0
16/08:30pm 25.2 27.9 20.2 74 3.3 N 6 7 3 4 - - 0.0

Other Formats:

Comma delimited format used in spreadsheet applications
http://www.bom.gov.au/fwo/IDQ60801/IDQ60801.95295.axf

JavaScript Object Notation format (JSON) in row-major order
http://www.bom.gov.au/fwo/IDQ60801/IDQ60801.95295.json